sensor_id;sensor_type;location;lat;lon;timestamp;temperature;humidity
24814;DHT22;12904;50.088;11.414;2022-07-19T00:01:35;15.80;91.30
24814;DHT22;12904;50.088;11.414;2022-07-19T00:04:01;15.80;92.10
24814;DHT22;12904;50.088;11.414;2022-07-19T00:06:27;15.70;92.00
24814;DHT22;12904;50.088;11.414;2022-07-19T00:08:53;15.60;92.00
24814;DHT22;12904;50.088;11.414;2022-07-19T00:11:19;15.60;92.10
24814;DHT22;12904;50.088;11.414;2022-07-19T00:13:45;15.60;92.00
24814;DHT22;12904;50.088;11.414;2022-07-19T00:16:10;15.50;92.10
24814;DHT22;12904;50.088;11.414;2022-07-19T00:18:36;15.50;92.30
24814;DHT22;12904;50.088;11.414;2022-07-19T00:21:02;15.40;93.70
24814;DHT22;12904;50.088;11.414;2022-07-19T00:23:28;15.40;93.40
24814;DHT22;12904;50.088;11.414;2022-07-19T00:25:53;15.40;93.60
24814;DHT22;12904;50.088;11.414;2022-07-19T00:28:19;15.30;93.70
24814;DHT22;12904;50.088;11.414;2022-07-19T00:30:44;15.30;93.60
24814;DHT22;12904;50.088;11.414;2022-07-19T00:33:10;15.30;94.00
24814;DHT22;12904;50.088;11.414;2022-07-19T00:35:37;15.30;94.00
24814;DHT22;12904;50.088;11.414;2022-07-19T00:38:04;15.30;94.10
24814;DHT22;12904;50.088;11.414;2022-07-19T00:40:31;15.30;94.30
24814;DHT22;12904;50.088;11.414;2022-07-19T00:42:57;15.30;94.20
24814;DHT22;12904;50.088;11.414;2022-07-19T00:45:22;15.30;94.30
24814;DHT22;12904;50.088;11.414;2022-07-19T00:47:48;15.30;94.80
24814;DHT22;12904;50.088;11.414;2022-07-19T00:50:14;15.30;94.90
24814;DHT22;12904;50.088;11.414;2022-07-19T00:52:40;15.20;95.40
24814;DHT22;12904;50.088;11.414;2022-07-19T00:55:08;15.10;95.80
24814;DHT22;12904;50.088;11.414;2022-07-19T00:57:36;15.00;96.00
24814;DHT22;12904;50.088;11.414;2022-07-19T01:00:04;14.80;96.40
24814;DHT22;12904;50.088;11.414;2022-07-19T01:02:31;14.70;97.00
24814;DHT22;12904;50.088;11.414;2022-07-19T01:04:58;14.60;97.30
24814;DHT22;12904;50.088;11.414;2022-07-19T01:07:24;14.50;98.30
24814;DHT22;12904;50.088;11.414;2022-07-19T01:09:50;14.40;99.10
24814;DHT22;12904;50.088;11.414;2022-07-19T01:12:17;14.30;99.20
24814;DHT22;12904;50.088;11.414;2022-07-19T01:14:43;14.30;99.20
24814;DHT22;12904;50.088;11.414;2022-07-19T01:17:09;14.20;99.10
24814;DHT22;12904;50.088;11.414;2022-07-19T01:19:34;14.20;99.80
24814;DHT22;12904;50.088;11.414;2022-07-19T01:22:00;14.10;99.90
24814;DHT22;12904;50.088;11.414;2022-07-19T01:24:26;14.10;99.90
24814;DHT22;12904;50.088;11.414;2022-07-19T01:26:51;14.10;99.90
24814;DHT22;12904;50.088;11.414;2022-07-19T01:29:18;14.00;99.90
24814;DHT22;12904;50.088;11.414;2022-07-19T01:31:43;14.00;99.90
24814;DHT22;12904;50.088;11.414;2022-07-19T01:34:09;13.90;99.90
24814;DHT22;12904;50.088;11.414;2022-07-19T01:36:35;13.90;99.90
24814;DHT22;12904;50.088;11.414;2022-07-19T01:39:00;13.80;99.90
24814;DHT22;12904;50.088;11.414;2022-07-19T01:41:26;13.80;99.90
24814;DHT22;12904;50.088;11.414;2022-07-19T01:43:52;13.80;99.90
24814;DHT22;12904;50.088;11.414;2022-07-19T01:46:17;13.80;99.90
24814;DHT22;12904;50.088;11.414;2022-07-19T01:48:43;13.80;99.90
24814;DHT22;12904;50.088;11.414;2022-07-19T01:51:09;13.80;99.90
24814;DHT22;12904;50.088;11.414;2022-07-19T01:53:35;13.90;99.90
24814;DHT22;12904;50.088;11.414;2022-07-19T01:56:04;14.00;99.90
24814;DHT22;12904;50.088;11.414;2022-07-19T01:58:30;14.10;99.90
24814;DHT22;12904;50.088;11.414;2022-07-19T02:00:55;14.20;99.90
24814;DHT22;12904;50.088;11.414;2022-07-19T02:03:21;14.20;99.90
24814;DHT22;12904;50.088;11.414;2022-07-19T02:05:47;14.20;99.90
24814;DHT22;12904;50.088;11.414;2022-07-19T02:08:12;14.10;99.90
24814;DHT22;12904;50.088;11.414;2022-07-19T02:10:38;14.10;99.90
24814;DHT22;12904;50.088;11.414;2022-07-19T02:13:04;14.10;99.90
24814;DHT22;12904;50.088;11.414;2022-07-19T02:15:30;14.00;99.90
24814;DHT22;12904;50.088;11.414;2022-07-19T02:17:56;13.90;99.90
24814;DHT22;12904;50.088;11.414;2022-07-19T02:20:22;13.80;99.90
24814;DHT22;12904;50.088;11.414;2022-07-19T02:22:47;13.80;99.90
24814;DHT22;12904;50.088;11.414;2022-07-19T02:25:13;13.70;99.90
24814;DHT22;12904;50.088;11.414;2022-07-19T02:27:40;13.60;99.90
24814;DHT22;12904;50.088;11.414;2022-07-19T02:30:07;13.60;99.90
24814;DHT22;12904;50.088;11.414;2022-07-19T02:32:33;13.60;99.90
24814;DHT22;12904;50.088;11.414;2022-07-19T02:34:59;13.50;99.90
24814;DHT22;12904;50.088;11.414;2022-07-19T02:37:25;13.50;99.90
24814;DHT22;12904;50.088;11.414;2022-07-19T02:39:50;13.40;99.90
24814;DHT22;12904;50.088;11.414;2022-07-19T02:42:16;13.40;99.90
24814;DHT22;12904;50.088;11.414;2022-07-19T02:44:42;13.30;99.90
24814;DHT22;12904;50.088;11.414;2022-07-19T02:47:07;13.30;99.90
24814;DHT22;12904;50.088;11.414;2022-07-19T02:49:33;13.30;99.90
24814;DHT22;12904;50.088;11.414;2022-07-19T02:51:59;13.20;99.90
24814;DHT22;12904;50.088;11.414;2022-07-19T02:54:24;13.20;99.90
24814;DHT22;12904;50.088;11.414;2022-07-19T02:56:50;13.10;99.90
24814;DHT22;12904;50.088;11.414;2022-07-19T02:59:15;13.10;99.90
24814;DHT22;12904;50.088;11.414;2022-07-19T03:01:41;13.00;99.90
24814;DHT22;12904;50.088;11.414;2022-07-19T03:04:07;13.00;99.90
24814;DHT22;12904;50.088;11.414;2022-07-19T03:06:32;12.90;99.90
24814;DHT22;12904;50.088;11.414;2022-07-19T03:08:58;12.90;99.90
24814;DHT22;12904;50.088;11.414;2022-07-19T03:11:24;12.80;99.90
24814;DHT22;12904;50.088;11.414;2022-07-19T03:13:49;12.90;99.90
24814;DHT22;12904;50.088;11.414;2022-07-19T03:16:15;12.80;99.90
24814;DHT22;12904;50.088;11.414;2022-07-19T03:18:41;12.80;99.90
24814;DHT22;12904;50.088;11.414;2022-07-19T03:21:06;12.80;99.90
24814;DHT22;12904;50.088;11.414;2022-07-19T03:23:36;12.80;99.90
24814;DHT22;12904;50.088;11.414;2022-07-19T03:26:02;12.70;99.90
24814;DHT22;12904;50.088;11.414;2022-07-19T03:28:31;12.70;99.90
24814;DHT22;12904;50.088;11.414;2022-07-19T03:31:02;12.70;99.90
24814;DHT22;12904;50.088;11.414;2022-07-19T03:33:28;12.70;99.90
24814;DHT22;12904;50.088;11.414;2022-07-19T03:35:54;12.70;99.90
24814;DHT22;12904;50.088;11.414;2022-07-19T03:38:19;12.60;99.90
24814;DHT22;12904;50.088;11.414;2022-07-19T03:40:46;12.60;99.90
24814;DHT22;12904;50.088;11.414;2022-07-19T03:43:18;12.70;99.90
24814;DHT22;12904;50.088;11.414;2022-07-19T03:45:45;12.70;99.90
24814;DHT22;12904;50.088;11.414;2022-07-19T03:48:11;12.60;99.90
24814;DHT22;12904;50.088;11.414;2022-07-19T03:50:36;12.70;99.90
24814;DHT22;12904;50.088;11.414;2022-07-19T03:53:03;12.80;99.90
24814;DHT22;12904;50.088;11.414;2022-07-19T03:55:29;12.80;99.90
24814;DHT22;12904;50.088;11.414;2022-07-19T03:57:55;12.90;99.90
24814;DHT22;12904;50.088;11.414;2022-07-19T04:00:20;12.90;99.90
24814;DHT22;12904;50.088;11.414;2022-07-19T04:02:46;13.00;99.90
24814;DHT22;12904;50.088;11.414;2022-07-19T04:05:12;13.00;99.90
24814;DHT22;12904;50.088;11.414;2022-07-19T04:07:37;13.00;99.90
24814;DHT22;12904;50.088;11.414;2022-07-19T04:10:03;13.00;99.90
24814;DHT22;12904;50.088;11.414;2022-07-19T04:12:29;12.90;99.90
24814;DHT22;12904;50.088;11.414;2022-07-19T04:14:55;12.90;99.90
24814;DHT22;12904;50.088;11.414;2022-07-19T04:17:20;12.90;99.90
24814;DHT22;12904;50.088;11.414;2022-07-19T04:19:46;13.00;99.90
24814;DHT22;12904;50.088;11.414;2022-07-19T04:22:12;13.00;99.90
24814;DHT22;12904;50.088;11.414;2022-07-19T04:24:38;13.00;99.90
24814;DHT22;12904;50.088;11.414;2022-07-19T04:27:03;13.10;99.90
24814;DHT22;12904;50.088;11.414;2022-07-19T04:29:29;13.10;99.90
24814;DHT22;12904;50.088;11.414;2022-07-19T04:31:55;13.10;99.90
24814;DHT22;12904;50.088;11.414;2022-07-19T04:34:21;13.10;99.90
24814;DHT22;12904;50.088;11.414;2022-07-19T04:36:46;13.10;99.90
24814;DHT22;12904;50.088;11.414;2022-07-19T04:39:12;13.10;99.90
24814;DHT22;12904;50.088;11.414;2022-07-19T04:41:37;13.20;99.90
24814;DHT22;12904;50.088;11.414;2022-07-19T04:44:03;13.20;99.90
24814;DHT22;12904;50.088;11.414;2022-07-19T04:46:29;13.30;99.90
24814;DHT22;12904;50.088;11.414;2022-07-19T04:48:55;13.40;99.90
24814;DHT22;12904;50.088;11.414;2022-07-19T04:51:20;13.50;99.90
24814;DHT22;12904;50.088;11.414;2022-07-19T04:53:46;13.60;99.90
24814;DHT22;12904;50.088;11.414;2022-07-19T04:56:12;13.70;99.90
24814;DHT22;12904;50.088;11.414;2022-07-19T04:58:37;13.80;99.90
24814;DHT22;12904;50.088;11.414;2022-07-19T05:01:03;13.90;99.90
24814;DHT22;12904;50.088;11.414;2022-07-19T05:03:29;14.10;99.90
24814;DHT22;12904;50.088;11.414;2022-07-19T05:05:54;14.20;99.90
24814;DHT22;12904;50.088;11.414;2022-07-19T05:08:20;14.40;99.90
24814;DHT22;12904;50.088;11.414;2022-07-19T05:10:46;14.60;99.90
24814;DHT22;12904;50.088;11.414;2022-07-19T05:13:11;15.00;99.90
24814;DHT22;12904;50.088;11.414;2022-07-19T05:15:37;15.80;99.90
24814;DHT22;12904;50.088;11.414;2022-07-19T05:18:03;17.00;99.90
24814;DHT22;12904;50.088;11.414;2022-07-19T05:20:28;18.50;99.90
24814;DHT22;12904;50.088;11.414;2022-07-19T05:22:54;19.90;98.10
24814;DHT22;12904;50.088;11.414;2022-07-19T05:25:20;21.10;90.00
24814;DHT22;12904;50.088;11.414;2022-07-19T05:27:46;22.20;83.40
24814;DHT22;12904;50.088;11.414;2022-07-19T05:30:12;22.90;77.30
24814;DHT22;12904;50.088;11.414;2022-07-19T05:32:38;23.80;73.10
24814;DHT22;12904;50.088;11.414;2022-07-19T05:35:04;24.90;68.90
24814;DHT22;12904;50.088;11.414;2022-07-19T05:37:30;25.90;63.60
24814;DHT22;12904;50.088;11.414;2022-07-19T05:39:56;26.90;62.30
24814;DHT22;12904;50.088;11.414;2022-07-19T05:42:22;28.10;58.10
24814;DHT22;12904;50.088;11.414;2022-07-19T05:44:48;29.00;54.70
24814;DHT22;12904;50.088;11.414;2022-07-19T05:47:13;29.50;53.00
24814;DHT22;12904;50.088;11.414;2022-07-19T05:49:41;30.30;52.20
24814;DHT22;12904;50.088;11.414;2022-07-19T05:52:06;30.80;51.20
24814;DHT22;12904;50.088;11.414;2022-07-19T05:54:32;31.40;50.20
24814;DHT22;12904;50.088;11.414;2022-07-19T05:56:58;32.20;47.80
24814;DHT22;12904;50.088;11.414;2022-07-19T05:59:23;32.70;46.40
24814;DHT22;12904;50.088;11.414;2022-07-19T06:01:49;33.00;46.30
24814;DHT22;12904;50.088;11.414;2022-07-19T06:04:15;32.90;44.80
24814;DHT22;12904;50.088;11.414;2022-07-19T06:06:41;33.20;44.10
24814;DHT22;12904;50.088;11.414;2022-07-19T06:09:07;33.10;42.20
24814;DHT22;12904;50.088;11.414;2022-07-19T06:11:38;33.10;43.10
24814;DHT22;12904;50.088;11.414;2022-07-19T06:14:04;32.80;42.70
24814;DHT22;12904;50.088;11.414;2022-07-19T06:16:32;31.90;44.60
24814;DHT22;12904;50.088;11.414;2022-07-19T06:18:57;32.30;44.50
24814;DHT22;12904;50.088;11.414;2022-07-19T06:21:23;32.50;44.50
24814;DHT22;12904;50.088;11.414;2022-07-19T06:23:49;32.70;43.30
24814;DHT22;12904;50.088;11.414;2022-07-19T06:26:15;33.70;42.80
24814;DHT22;12904;50.088;11.414;2022-07-19T06:28:42;34.50;41.40
24814;DHT22;12904;50.088;11.414;2022-07-19T06:31:12;34.80;40.90
24814;DHT22;12904;50.088;11.414;2022-07-19T06:33:42;35.60;39.70
24814;DHT22;12904;50.088;11.414;2022-07-19T06:36:08;35.30;38.20
24814;DHT22;12904;50.088;11.414;2022-07-19T06:38:35;35.10;39.40
24814;DHT22;12904;50.088;11.414;2022-07-19T06:41:00;35.70;38.80
24814;DHT22;12904;50.088;11.414;2022-07-19T06:43:26;36.20;38.70
24814;DHT22;12904;50.088;11.414;2022-07-19T06:45:52;36.70;37.80
24814;DHT22;12904;50.088;11.414;2022-07-19T06:48:17;37.30;36.90
24814;DHT22;12904;50.088;11.414;2022-07-19T06:50:43;37.40;36.50
24814;DHT22;12904;50.088;11.414;2022-07-19T06:53:08;37.50;36.10
24814;DHT22;12904;50.088;11.414;2022-07-19T06:55:35;36.90;37.00
24814;DHT22;12904;50.088;11.414;2022-07-19T06:58:01;37.20;36.50
24814;DHT22;12904;50.088;11.414;2022-07-19T07:00:27;37.70;35.20
24814;DHT22;12904;50.088;11.414;2022-07-19T07:02:53;37.90;35.30
24814;DHT22;12904;50.088;11.414;2022-07-19T07:05:19;38.30;35.90
24814;DHT22;12904;50.088;11.414;2022-07-19T07:07:44;37.90;35.20
24814;DHT22;12904;50.088;11.414;2022-07-19T07:10:10;38.40;36.70
24814;DHT22;12904;50.088;11.414;2022-07-19T07:12:37;38.50;34.40
24814;DHT22;12904;50.088;11.414;2022-07-19T07:15:04;38.60;34.20
24814;DHT22;12904;50.088;11.414;2022-07-19T07:17:30;37.80;35.60
24814;DHT22;12904;50.088;11.414;2022-07-19T07:19:55;37.40;35.10
24814;DHT22;12904;50.088;11.414;2022-07-19T07:22:25;37.70;35.40
24814;DHT22;12904;50.088;11.414;2022-07-19T07:24:50;38.60;35.00
24814;DHT22;12904;50.088;11.414;2022-07-19T07:27:16;39.20;34.70
24814;DHT22;12904;50.088;11.414;2022-07-19T07:29:42;39.50;32.70
24814;DHT22;12904;50.088;11.414;2022-07-19T07:32:07;40.30;33.60
24814;DHT22;12904;50.088;11.414;2022-07-19T07:34:33;40.60;32.60
24814;DHT22;12904;50.088;11.414;2022-07-19T07:36:59;41.30;31.80
24814;DHT22;12904;50.088;11.414;2022-07-19T07:39:25;41.90;31.00
24814;DHT22;12904;50.088;11.414;2022-07-19T07:41:50;42.50;30.80
24814;DHT22;12904;50.088;11.414;2022-07-19T07:44:16;42.70;31.50
24814;DHT22;12904;50.088;11.414;2022-07-19T07:46:42;42.80;29.80
24814;DHT22;12904;50.088;11.414;2022-07-19T07:49:07;42.00;29.70
24814;DHT22;12904;50.088;11.414;2022-07-19T07:51:33;42.40;29.50
24814;DHT22;12904;50.088;11.414;2022-07-19T07:53:59;42.70;30.10
24814;DHT22;12904;50.088;11.414;2022-07-19T07:56:25;42.90;29.60
24814;DHT22;12904;50.088;11.414;2022-07-19T07:58:51;42.90;29.40
24814;DHT22;12904;50.088;11.414;2022-07-19T08:01:17;42.90;29.10
24814;DHT22;12904;50.088;11.414;2022-07-19T08:03:43;43.40;29.30
24814;DHT22;12904;50.088;11.414;2022-07-19T08:06:09;44.10;29.30
24814;DHT22;12904;50.088;11.414;2022-07-19T08:08:36;44.10;28.70
24814;DHT22;12904;50.088;11.414;2022-07-19T08:11:02;44.00;28.50
24814;DHT22;12904;50.088;11.414;2022-07-19T08:13:29;44.00;29.00
24814;DHT22;12904;50.088;11.414;2022-07-19T08:15:54;44.00;28.20
24814;DHT22;12904;50.088;11.414;2022-07-19T08:18:20;43.80;29.20
24814;DHT22;12904;50.088;11.414;2022-07-19T08:20:46;43.90;28.10
24814;DHT22;12904;50.088;11.414;2022-07-19T08:23:11;43.60;28.20
24814;DHT22;12904;50.088;11.414;2022-07-19T08:25:37;43.50;28.10
24814;DHT22;12904;50.088;11.414;2022-07-19T08:28:03;44.20;28.70
24814;DHT22;12904;50.088;11.414;2022-07-19T08:30:30;44.80;28.40
24814;DHT22;12904;50.088;11.414;2022-07-19T08:32:56;45.10;28.00
24814;DHT22;12904;50.088;11.414;2022-07-19T08:35:22;44.80;28.20
24814;DHT22;12904;50.088;11.414;2022-07-19T08:37:47;44.80;28.00
24814;DHT22;12904;50.088;11.414;2022-07-19T08:40:13;44.30;27.40
24814;DHT22;12904;50.088;11.414;2022-07-19T08:42:40;44.80;27.90
24814;DHT22;12904;50.088;11.414;2022-07-19T08:45:08;45.20;26.80
24814;DHT22;12904;50.088;11.414;2022-07-19T08:47:36;45.40;27.60
24814;DHT22;12904;50.088;11.414;2022-07-19T08:50:07;45.20;26.80
24814;DHT22;12904;50.088;11.414;2022-07-19T08:52:34;44.60;28.10
24814;DHT22;12904;50.088;11.414;2022-07-19T08:55:00;44.40;27.40
24814;DHT22;12904;50.088;11.414;2022-07-19T08:57:26;44.30;27.50
24814;DHT22;12904;50.088;11.414;2022-07-19T09:00:11;43.90;27.30
24814;DHT22;12904;50.088;11.414;2022-07-19T09:02:37;43.70;27.50
24814;DHT22;12904;50.088;11.414;2022-07-19T09:05:08;44.00;27.90
24814;DHT22;12904;50.088;11.414;2022-07-19T09:07:36;44.30;26.90
24814;DHT22;12904;50.088;11.414;2022-07-19T09:13:13;43.80;27.50
24814;DHT22;12904;50.088;11.414;2022-07-19T09:18:19;42.90;29.00
24814;DHT22;12904;50.088;11.414;2022-07-19T09:20:47;43.40;29.30
24814;DHT22;12904;50.088;11.414;2022-07-19T09:23:13;43.70;26.70
24814;DHT22;12904;50.088;11.414;2022-07-19T09:28:11;43.80;26.10
24814;DHT22;12904;50.088;11.414;2022-07-19T09:30:45;43.60;26.90
24814;DHT22;12904;50.088;11.414;2022-07-19T09:35:42;44.20;26.30
24814;DHT22;12904;50.088;11.414;2022-07-19T09:40:45;44.50;26.20
24814;DHT22;12904;50.088;11.414;2022-07-19T09:43:10;44.40;26.40
24814;DHT22;12904;50.088;11.414;2022-07-19T09:45:36;43.70;25.10
24814;DHT22;12904;50.088;11.414;2022-07-19T09:48:02;43.00;26.40
24814;DHT22;12904;50.088;11.414;2022-07-19T09:50:30;43.90;26.30
24814;DHT22;12904;50.088;11.414;2022-07-19T09:52:58;44.80;26.30
24814;DHT22;12904;50.088;11.414;2022-07-19T09:55:26;46.10;24.90
24814;DHT22;12904;50.088;11.414;2022-07-19T09:57:52;47.50;24.40
24814;DHT22;12904;50.088;11.414;2022-07-19T10:00:20;48.10;23.30
24814;DHT22;12904;50.088;11.414;2022-07-19T10:02:59;48.00;22.80
24814;DHT22;12904;50.088;11.414;2022-07-19T10:05:26;47.40;22.40
24814;DHT22;12904;50.088;11.414;2022-07-19T10:07:52;47.20;23.30
24814;DHT22;12904;50.088;11.414;2022-07-19T10:10:21;45.80;23.40
24814;DHT22;12904;50.088;11.414;2022-07-19T10:12:48;44.70;24.30
24814;DHT22;12904;50.088;11.414;2022-07-19T10:15:19;44.30;24.90
24814;DHT22;12904;50.088;11.414;2022-07-19T10:17:47;43.90;24.70
24814;DHT22;12904;50.088;11.414;2022-07-19T10:20:18;43.70;24.60
24814;DHT22;12904;50.088;11.414;2022-07-19T10:22:45;43.30;25.60
24814;DHT22;12904;50.088;11.414;2022-07-19T10:25:15;42.60;25.10
24814;DHT22;12904;50.088;11.414;2022-07-19T10:27:44;42.50;25.90
24814;DHT22;12904;50.088;11.414;2022-07-19T10:32:37;42.00;26.00
24814;DHT22;12904;50.088;11.414;2022-07-19T10:35:30;40.90;26.50
24814;DHT22;12904;50.088;11.414;2022-07-19T10:43:07;40.00;26.80
24814;DHT22;12904;50.088;11.414;2022-07-19T10:45:33;40.00;27.40
24814;DHT22;12904;50.088;11.414;2022-07-19T10:48:02;39.60;27.40
24814;DHT22;12904;50.088;11.414;2022-07-19T10:50:42;39.60;28.00
24814;DHT22;12904;50.088;11.414;2022-07-19T10:53:08;40.40;28.60
24814;DHT22;12904;50.088;11.414;2022-07-19T10:55:34;41.60;26.70
24814;DHT22;12904;50.088;11.414;2022-07-19T10:58:10;41.20;26.00
24814;DHT22;12904;50.088;11.414;2022-07-19T11:00:47;39.90;27.10
24814;DHT22;12904;50.088;11.414;2022-07-19T11:05:49;39.10;27.50
24814;DHT22;12904;50.088;11.414;2022-07-19T11:08:16;38.70;28.10
24814;DHT22;12904;50.088;11.414;2022-07-19T11:10:42;39.00;27.80
24814;DHT22;12904;50.088;11.414;2022-07-19T11:13:08;39.20;28.10
24814;DHT22;12904;50.088;11.414;2022-07-19T11:15:34;39.10;28.90
24814;DHT22;12904;50.088;11.414;2022-07-19T11:18:05;38.50;27.00
24814;DHT22;12904;50.088;11.414;2022-07-19T11:20:33;38.10;27.80
24814;DHT22;12904;50.088;11.414;2022-07-19T11:23:01;38.10;28.30
24814;DHT22;12904;50.088;11.414;2022-07-19T11:25:34;38.60;27.50
24814;DHT22;12904;50.088;11.414;2022-07-19T11:28:01;38.80;27.10
24814;DHT22;12904;50.088;11.414;2022-07-19T11:30:29;38.60;28.20
24814;DHT22;12904;50.088;11.414;2022-07-19T11:33:04;38.40;27.90
24814;DHT22;12904;50.088;11.414;2022-07-19T11:35:30;37.90;28.10
24814;DHT22;12904;50.088;11.414;2022-07-19T11:37:58;37.40;27.80
24814;DHT22;12904;50.088;11.414;2022-07-19T11:40:25;37.00;28.60
24814;DHT22;12904;50.088;11.414;2022-07-19T11:42:56;37.00;29.10
24814;DHT22;12904;50.088;11.414;2022-07-19T11:45:25;37.30;30.00
24814;DHT22;12904;50.088;11.414;2022-07-19T11:47:54;37.70;30.90
24814;DHT22;12904;50.088;11.414;2022-07-19T11:50:22;37.90;27.90
24814;DHT22;12904;50.088;11.414;2022-07-19T11:52:51;38.10;29.80
24814;DHT22;12904;50.088;11.414;2022-07-19T11:55:25;38.60;28.80
24814;DHT22;12904;50.088;11.414;2022-07-19T11:57:52;39.00;28.20
24814;DHT22;12904;50.088;11.414;2022-07-19T12:00:19;38.50;28.00
24814;DHT22;12904;50.088;11.414;2022-07-19T12:05:21;37.50;28.20
24814;DHT22;12904;50.088;11.414;2022-07-19T12:07:49;37.70;29.90
24814;DHT22;12904;50.088;11.414;2022-07-19T12:13:10;37.80;29.30
24814;DHT22;12904;50.088;11.414;2022-07-19T12:18:22;37.70;29.60
24814;DHT22;12904;50.088;11.414;2022-07-19T12:21:17;37.60;28.50
24814;DHT22;12904;50.088;11.414;2022-07-19T12:24:22;37.20;30.50
24814;DHT22;12904;50.088;11.414;2022-07-19T12:27:17;37.70;29.40
24814;DHT22;12904;50.088;11.414;2022-07-19T12:29:45;37.80;28.50
24814;DHT22;12904;50.088;11.414;2022-07-19T12:32:25;37.50;28.80
24814;DHT22;12904;50.088;11.414;2022-07-19T12:34:56;37.60;29.30
24814;DHT22;12904;50.088;11.414;2022-07-19T12:45:15;39.60;27.60
24814;DHT22;12904;50.088;11.414;2022-07-19T12:47:41;39.70;27.00
24814;DHT22;12904;50.088;11.414;2022-07-19T12:50:09;39.40;26.90
24814;DHT22;12904;50.088;11.414;2022-07-19T12:52:35;38.80;27.30
24814;DHT22;12904;50.088;11.414;2022-07-19T12:55:00;38.40;27.90
24814;DHT22;12904;50.088;11.414;2022-07-19T12:57:26;38.20;28.40
24814;DHT22;12904;50.088;11.414;2022-07-19T12:59:54;38.00;28.60
24814;DHT22;12904;50.088;11.414;2022-07-19T13:02:20;37.50;27.90
24814;DHT22;12904;50.088;11.414;2022-07-19T13:04:46;37.50;29.70
24814;DHT22;12904;50.088;11.414;2022-07-19T13:07:12;37.70;28.90
24814;DHT22;12904;50.088;11.414;2022-07-19T13:09:39;38.20;28.80
24814;DHT22;12904;50.088;11.414;2022-07-19T13:12:06;38.50;29.00
24814;DHT22;12904;50.088;11.414;2022-07-19T13:14:33;38.20;27.10
24814;DHT22;12904;50.088;11.414;2022-07-19T13:17:00;38.00;27.30
24814;DHT22;12904;50.088;11.414;2022-07-19T13:19:25;37.60;27.30
24814;DHT22;12904;50.088;11.414;2022-07-19T13:21:52;37.40;28.10
24814;DHT22;12904;50.088;11.414;2022-07-19T13:24:18;37.30;28.60
24814;DHT22;12904;50.088;11.414;2022-07-19T13:26:43;37.50;28.30
24814;DHT22;12904;50.088;11.414;2022-07-19T13:29:09;37.40;29.10
24814;DHT22;12904;50.088;11.414;2022-07-19T13:31:36;37.70;28.50
24814;DHT22;12904;50.088;11.414;2022-07-19T13:34:02;38.10;29.00
24814;DHT22;12904;50.088;11.414;2022-07-19T13:36:31;38.50;28.20
24814;DHT22;12904;50.088;11.414;2022-07-19T13:38:57;38.70;27.70
24814;DHT22;12904;50.088;11.414;2022-07-19T13:41:23;38.10;27.90
24814;DHT22;12904;50.088;11.414;2022-07-19T13:43:48;37.40;28.40
24814;DHT22;12904;50.088;11.414;2022-07-19T13:46:14;37.00;29.30
24814;DHT22;12904;50.088;11.414;2022-07-19T13:48:40;37.10;29.90
24814;DHT22;12904;50.088;11.414;2022-07-19T13:51:07;37.50;28.90
24814;DHT22;12904;50.088;11.414;2022-07-19T13:53:34;37.80;28.70
24814;DHT22;12904;50.088;11.414;2022-07-19T13:56:00;38.30;28.60
24814;DHT22;12904;50.088;11.414;2022-07-19T13:58:27;38.60;27.90
24814;DHT22;12904;50.088;11.414;2022-07-19T14:00:53;38.90;27.90
24814;DHT22;12904;50.088;11.414;2022-07-19T14:03:19;38.20;27.10
24814;DHT22;12904;50.088;11.414;2022-07-19T14:05:46;38.20;28.40
24814;DHT22;12904;50.088;11.414;2022-07-19T14:08:13;38.40;28.40
24814;DHT22;12904;50.088;11.414;2022-07-19T14:10:39;38.30;29.10
24814;DHT22;12904;50.088;11.414;2022-07-19T14:13:05;38.00;28.40
24814;DHT22;12904;50.088;11.414;2022-07-19T14:15:31;37.30;29.10
24814;DHT22;12904;50.088;11.414;2022-07-19T14:17:58;37.00;29.40
24814;DHT22;12904;50.088;11.414;2022-07-19T14:20:24;37.00;29.90
24814;DHT22;12904;50.088;11.414;2022-07-19T14:22:50;37.00;29.80
24814;DHT22;12904;50.088;11.414;2022-07-19T14:25:16;36.90;29.30
24814;DHT22;12904;50.088;11.414;2022-07-19T14:27:42;36.70;29.50
24814;DHT22;12904;50.088;11.414;2022-07-19T14:30:08;36.40;29.30
24814;DHT22;12904;50.088;11.414;2022-07-19T14:32:34;36.30;30.50
24814;DHT22;12904;50.088;11.414;2022-07-19T14:34:59;36.30;29.50
24814;DHT22;12904;50.088;11.414;2022-07-19T14:37:25;36.40;30.00
24814;DHT22;12904;50.088;11.414;2022-07-19T14:39:51;36.60;29.60
24814;DHT22;12904;50.088;11.414;2022-07-19T14:42:17;36.90;29.70
24814;DHT22;12904;50.088;11.414;2022-07-19T14:44:42;36.90;29.10
24814;DHT22;12904;50.088;11.414;2022-07-19T14:47:08;36.50;29.10
24814;DHT22;12904;50.088;11.414;2022-07-19T14:49:35;36.20;29.50
24814;DHT22;12904;50.088;11.414;2022-07-19T14:52:01;35.90;29.40
24814;DHT22;12904;50.088;11.414;2022-07-19T14:54:27;35.80;29.80
24814;DHT22;12904;50.088;11.414;2022-07-19T14:56:53;35.70;30.00
24814;DHT22;12904;50.088;11.414;2022-07-19T14:59:20;35.80;30.10
24814;DHT22;12904;50.088;11.414;2022-07-19T15:01:49;35.70;29.40
24814;DHT22;12904;50.088;11.414;2022-07-19T15:04:14;35.80;29.70
24814;DHT22;12904;50.088;11.414;2022-07-19T15:06:40;35.70;29.70
24814;DHT22;12904;50.088;11.414;2022-07-19T15:09:06;35.70;30.50
24814;DHT22;12904;50.088;11.414;2022-07-19T15:11:32;35.40;30.00
24814;DHT22;12904;50.088;11.414;2022-07-19T15:14:01;35.30;30.10
24814;DHT22;12904;50.088;11.414;2022-07-19T15:16:27;35.40;30.50
24814;DHT22;12904;50.088;11.414;2022-07-19T15:18:53;35.50;30.50
24814;DHT22;12904;50.088;11.414;2022-07-19T15:21:19;35.40;30.20
24814;DHT22;12904;50.088;11.414;2022-07-19T15:23:45;35.50;30.10
24814;DHT22;12904;50.088;11.414;2022-07-19T15:26:11;35.50;30.30
24814;DHT22;12904;50.088;11.414;2022-07-19T15:28:37;35.60;30.60
24814;DHT22;12904;50.088;11.414;2022-07-19T15:31:04;35.50;30.30
24814;DHT22;12904;50.088;11.414;2022-07-19T15:33:31;35.60;30.00
24814;DHT22;12904;50.088;11.414;2022-07-19T15:35:57;35.60;30.10
24814;DHT22;12904;50.088;11.414;2022-07-19T15:38:23;35.70;30.40
24814;DHT22;12904;50.088;11.414;2022-07-19T15:40:49;35.80;31.10
24814;DHT22;12904;50.088;11.414;2022-07-19T15:43:16;35.80;30.10
24814;DHT22;12904;50.088;11.414;2022-07-19T15:45:42;35.80;29.60
24814;DHT22;12904;50.088;11.414;2022-07-19T15:48:08;35.70;30.00
24814;DHT22;12904;50.088;11.414;2022-07-19T15:50:34;35.60;30.00
24814;DHT22;12904;50.088;11.414;2022-07-19T15:53:07;35.60;30.20